Chazy, New York
Current Conditions -  °F | °C
As of 11:33 AM on Wednesday 22 Oct 2014 (Local Time) from KPBG Reporting Station
Light Rain Light Rain  
Wind Chill: 39°   Ceiling: 1000
Heat Index: 45°   Visibility: 9mi
Dew Point: 42°   Wind: 14mph
Humidity: 90%   Direction: 350°N
Pressure: 30.24"   Gusts: NA
Location:  44.89°N, 73.44°W
Report Text: KPBG 221533Z AUTO 35012KT 9SM -RA OVC010 07/06 A3024 RMK AO2 RAB32 CIG 009V013 P0000 T00720056
Loading
Personal Weather Stations






























Interactive Weather Map
Tropical Storm Tracking
New forecast layout! Learn more

10-Day Weather Forecast

Advertisements
Track Severe Weather on mobile